sensor_id;sensor_type;location;lat;lon;timestamp;P1;durP1;ratioP1;P2;durP2;ratioP2
34896;SDS011;43407;51.828;-2.298;2023-04-25T00:01:44;8.23;;;4.03;;
34896;SDS011;43407;51.828;-2.298;2023-04-25T00:04:10;4.60;;;3.50;;
34896;SDS011;43407;51.828;-2.298;2023-04-25T00:06:36;5.70;;;3.10;;
34896;SDS011;43407;51.828;-2.298;2023-04-25T00:09:05;5.65;;;3.75;;
34896;SDS011;43407;51.828;-2.298;2023-04-25T00:11:34;4.35;;;3.67;;
34896;SDS011;43407;51.828;-2.298;2023-04-25T00:13:59;6.28;;;3.45;;
34896;SDS011;43407;51.828;-2.298;2023-04-25T00:16:27;5.97;;;3.83;;
34896;SDS011;43407;51.828;-2.298;2023-04-25T00:18:53;5.05;;;3.40;;
34896;SDS011;43407;51.828;-2.298;2023-04-25T00:21:19;5.85;;;3.40;;
34896;SDS011;43407;51.828;-2.298;2023-04-25T00:23:46;8.15;;;3.67;;
34896;SDS011;43407;51.828;-2.298;2023-04-25T00:26:11;6.07;;;3.67;;
34896;SDS011;43407;51.828;-2.298;2023-04-25T00:28:38;7.32;;;3.30;;
34896;SDS011;43407;51.828;-2.298;2023-04-25T00:31:04;5.97;;;3.55;;
34896;SDS011;43407;51.828;-2.298;2023-04-25T00:33:30;5.53;;;3.50;;
34896;SDS011;43407;51.828;-2.298;2023-04-25T00:35:56;5.40;;;3.50;;
34896;SDS011;43407;51.828;-2.298;2023-04-25T00:38:21;8.25;;;3.53;;
34896;SDS011;43407;51.828;-2.298;2023-04-25T00:40:47;5.47;;;2.83;;
34896;SDS011;43407;51.828;-2.298;2023-04-25T00:43:12;5.68;;;2.80;;
34896;SDS011;43407;51.828;-2.298;2023-04-25T00:45:38;5.07;;;2.63;;
34896;SDS011;43407;51.828;-2.298;2023-04-25T00:48:04;8.85;;;3.25;;
34896;SDS011;43407;51.828;-2.298;2023-04-25T00:50:30;8.95;;;3.17;;
34896;SDS011;43407;51.828;-2.298;2023-04-25T00:52:58;7.20;;;3.28;;
34896;SDS011;43407;51.828;-2.298;2023-04-25T00:55:24;5.30;;;3.20;;
34896;SDS011;43407;51.828;-2.298;2023-04-25T00:57:50;7.10;;;2.85;;
34896;SDS011;43407;51.828;-2.298;2023-04-25T01:00:15;5.00;;;3.13;;
34896;SDS011;43407;51.828;-2.298;2023-04-25T01:02:41;9.32;;;3.67;;
34896;SDS011;43407;51.828;-2.298;2023-04-25T01:05:07;7.05;;;3.45;;
34896;SDS011;43407;51.828;-2.298;2023-04-25T01:07:33;6.97;;;3.92;;
34896;SDS011;43407;51.828;-2.298;2023-04-25T01:09:59;8.82;;;4.00;;
34896;SDS011;43407;51.828;-2.298;2023-04-25T01:12:26;7.28;;;3.80;;
34896;SDS011;43407;51.828;-2.298;2023-04-25T01:14:51;7.63;;;4.00;;
34896;SDS011;43407;51.828;-2.298;2023-04-25T01:17:17;6.28;;;3.90;;
34896;SDS011;43407;51.828;-2.298;2023-04-25T01:19:43;7.78;;;3.72;;
34896;SDS011;43407;51.828;-2.298;2023-04-25T01:22:11;7.70;;;3.72;;
34896;SDS011;43407;51.828;-2.298;2023-04-25T01:24:36;5.32;;;3.78;;
34896;SDS011;43407;51.828;-2.298;2023-04-25T01:27:02;7.18;;;3.60;;
34896;SDS011;43407;51.828;-2.298;2023-04-25T01:29:28;4.43;;;3.30;;
34896;SDS011;43407;51.828;-2.298;2023-04-25T01:31:54;6.20;;;3.70;;
34896;SDS011;43407;51.828;-2.298;2023-04-25T01:34:20;9.52;;;3.20;;
34896;SDS011;43407;51.828;-2.298;2023-04-25T01:36:49;7.40;;;3.60;;
34896;SDS011;43407;51.828;-2.298;2023-04-25T01:39:15;4.13;;;3.00;;
34896;SDS011;43407;51.828;-2.298;2023-04-25T01:41:42;6.57;;;3.40;;
34896;SDS011;43407;51.828;-2.298;2023-04-25T01:44:07;4.65;;;3.30;;
34896;SDS011;43407;51.828;-2.298;2023-04-25T01:46:33;4.20;;;3.28;;
34896;SDS011;43407;51.828;-2.298;2023-04-25T01:48:59;4.07;;;3.20;;
34896;SDS011;43407;51.828;-2.298;2023-04-25T01:51:25;6.85;;;3.38;;
34896;SDS011;43407;51.828;-2.298;2023-04-25T01:53:51;6.25;;;3.55;;
34896;SDS011;43407;51.828;-2.298;2023-04-25T01:56:17;5.82;;;3.53;;
34896;SDS011;43407;51.828;-2.298;2023-04-25T01:58:43;5.32;;;3.35;;
34896;SDS011;43407;51.828;-2.298;2023-04-25T02:01:09;6.78;;;3.92;;
34896;SDS011;43407;51.828;-2.298;2023-04-25T02:03:35;6.32;;;3.47;;
34896;SDS011;43407;51.828;-2.298;2023-04-25T02:06:01;5.85;;;3.42;;
34896;SDS011;43407;51.828;-2.298;2023-04-25T02:08:26;5.22;;;3.25;;
34896;SDS011;43407;51.828;-2.298;2023-04-25T02:10:52;4.70;;;3.35;;
34896;SDS011;43407;51.828;-2.298;2023-04-25T02:13:17;7.35;;;3.45;;
34896;SDS011;43407;51.828;-2.298;2023-04-25T02:15:43;5.70;;;3.45;;
34896;SDS011;43407;51.828;-2.298;2023-04-25T02:18:08;3.92;;;3.38;;
34896;SDS011;43407;51.828;-2.298;2023-04-25T02:20:35;6.95;;;3.75;;
34896;SDS011;43407;51.828;-2.298;2023-04-25T02:23:01;5.57;;;3.60;;
34896;SDS011;43407;51.828;-2.298;2023-04-25T02:25:27;7.63;;;3.63;;
34896;SDS011;43407;51.828;-2.298;2023-04-25T02:27:53;3.97;;;3.55;;
34896;SDS011;43407;51.828;-2.298;2023-04-25T02:30:19;4.72;;;3.67;;
34896;SDS011;43407;51.828;-2.298;2023-04-25T02:32:44;4.78;;;3.58;;
34896;SDS011;43407;51.828;-2.298;2023-04-25T02:35:10;4.22;;;3.20;;
34896;SDS011;43407;51.828;-2.298;2023-04-25T02:37:36;5.30;;;3.22;;
34896;SDS011;43407;51.828;-2.298;2023-04-25T02:40:02;7.13;;;3.80;;
34896;SDS011;43407;51.828;-2.298;2023-04-25T02:42:29;6.68;;;3.60;;
34896;SDS011;43407;51.828;-2.298;2023-04-25T02:44:55;4.63;;;3.67;;
34896;SDS011;43407;51.828;-2.298;2023-04-25T02:47:20;5.70;;;3.45;;
34896;SDS011;43407;51.828;-2.298;2023-04-25T02:49:46;4.40;;;3.85;;
34896;SDS011;43407;51.828;-2.298;2023-04-25T02:52:12;4.18;;;3.40;;
34896;SDS011;43407;51.828;-2.298;2023-04-25T02:54:38;6.00;;;3.55;;
34896;SDS011;43407;51.828;-2.298;2023-04-25T02:57:04;5.35;;;3.28;;
34896;SDS011;43407;51.828;-2.298;2023-04-25T02:59:30;5.90;;;3.63;;
34896;SDS011;43407;51.828;-2.298;2023-04-25T03:01:56;4.32;;;3.45;;
34896;SDS011;43407;51.828;-2.298;2023-04-25T03:04:21;4.07;;;3.20;;
34896;SDS011;43407;51.828;-2.298;2023-04-25T03:06:49;4.28;;;3.30;;
34896;SDS011;43407;51.828;-2.298;2023-04-25T03:09:15;3.40;;;3.10;;
34896;SDS011;43407;51.828;-2.298;2023-04-25T03:11:41;4.00;;;3.33;;
34896;SDS011;43407;51.828;-2.298;2023-04-25T03:14:06;4.18;;;3.35;;
34896;SDS011;43407;51.828;-2.298;2023-04-25T03:16:32;8.27;;;3.58;;
34896;SDS011;43407;51.828;-2.298;2023-04-25T03:18:57;5.32;;;3.53;;
34896;SDS011;43407;51.828;-2.298;2023-04-25T03:21:23;4.57;;;3.28;;
34896;SDS011;43407;51.828;-2.298;2023-04-25T03:23:49;4.90;;;3.20;;
34896;SDS011;43407;51.828;-2.298;2023-04-25T03:26:14;6.57;;;3.50;;
34896;SDS011;43407;51.828;-2.298;2023-04-25T03:28:40;4.22;;;3.22;;
34896;SDS011;43407;51.828;-2.298;2023-04-25T03:31:06;4.28;;;3.40;;
34896;SDS011;43407;51.828;-2.298;2023-04-25T03:33:31;5.07;;;3.42;;
34896;SDS011;43407;51.828;-2.298;2023-04-25T03:35:57;3.75;;;3.28;;
34896;SDS011;43407;51.828;-2.298;2023-04-25T03:38:22;3.92;;;3.10;;
34896;SDS011;43407;51.828;-2.298;2023-04-25T03:40:48;3.65;;;3.33;;
34896;SDS011;43407;51.828;-2.298;2023-04-25T03:43:15;10.68;;;3.15;;
34896;SDS011;43407;51.828;-2.298;2023-04-25T03:45:41;3.90;;;3.40;;
34896;SDS011;43407;51.828;-2.298;2023-04-25T03:48:06;4.45;;;3.30;;
34896;SDS011;43407;51.828;-2.298;2023-04-25T03:50:32;4.43;;;3.22;;
34896;SDS011;43407;51.828;-2.298;2023-04-25T03:52:58;3.45;;;2.80;;
34896;SDS011;43407;51.828;-2.298;2023-04-25T03:55:23;6.13;;;2.90;;
34896;SDS011;43407;51.828;-2.298;2023-04-25T03:57:49;7.80;;;3.35;;
34896;SDS011;43407;51.828;-2.298;2023-04-25T04:00:14;4.90;;;3.53;;
34896;SDS011;43407;51.828;-2.298;2023-04-25T04:02:40;7.05;;;3.03;;
34896;SDS011;43407;51.828;-2.298;2023-04-25T04:05:05;7.63;;;3.22;;
34896;SDS011;43407;51.828;-2.298;2023-04-25T04:07:31;9.32;;;3.15;;
34896;SDS011;43407;51.828;-2.298;2023-04-25T04:09:58;4.35;;;3.13;;
34896;SDS011;43407;51.828;-2.298;2023-04-25T04:12:24;7.20;;;3.30;;
34896;SDS011;43407;51.828;-2.298;2023-04-25T04:14:49;3.75;;;2.75;;
34896;SDS011;43407;51.828;-2.298;2023-04-25T04:17:15;3.85;;;3.20;;
34896;SDS011;43407;51.828;-2.298;2023-04-25T04:19:41;4.43;;;3.20;;
34896;SDS011;43407;51.828;-2.298;2023-04-25T04:22:06;4.35;;;3.10;;
34896;SDS011;43407;51.828;-2.298;2023-04-25T04:24:32;3.65;;;3.25;;
34896;SDS011;43407;51.828;-2.298;2023-04-25T04:26:57;4.53;;;3.65;;
34896;SDS011;43407;51.828;-2.298;2023-04-25T04:29:24;3.63;;;3.25;;
34896;SDS011;43407;51.828;-2.298;2023-04-25T04:31:50;5.53;;;3.30;;
34896;SDS011;43407;51.828;-2.298;2023-04-25T04:34:16;6.03;;;3.65;;
34896;SDS011;43407;51.828;-2.298;2023-04-25T04:36:43;6.15;;;3.50;;
34896;SDS011;43407;51.828;-2.298;2023-04-25T04:39:11;4.57;;;3.30;;
34896;SDS011;43407;51.828;-2.298;2023-04-25T04:41:37;5.18;;;3.33;;
34896;SDS011;43407;51.828;-2.298;2023-04-25T04:44:03;5.25;;;3.33;;
34896;SDS011;43407;51.828;-2.298;2023-04-25T04:46:28;4.38;;;3.35;;
34896;SDS011;43407;51.828;-2.298;2023-04-25T04:48:55;8.00;;;3.42;;
34896;SDS011;43407;51.828;-2.298;2023-04-25T04:51:21;5.18;;;3.50;;
34896;SDS011;43407;51.828;-2.298;2023-04-25T04:53:47;7.93;;;3.92;;
34896;SDS011;43407;51.828;-2.298;2023-04-25T04:56:12;3.63;;;3.28;;
34896;SDS011;43407;51.828;-2.298;2023-04-25T04:58:38;5.43;;;3.88;;
34896;SDS011;43407;51.828;-2.298;2023-04-25T05:01:03;4.25;;;3.50;;
34896;SDS011;43407;51.828;-2.298;2023-04-25T05:03:30;4.47;;;3.53;;
34896;SDS011;43407;51.828;-2.298;2023-04-25T05:05:55;8.95;;;3.83;;
34896;SDS011;43407;51.828;-2.298;2023-04-25T05:08:21;4.88;;;3.63;;
34896;SDS011;43407;51.828;-2.298;2023-04-25T05:10:46;5.75;;;3.53;;
34896;SDS011;43407;51.828;-2.298;2023-04-25T05:13:12;4.63;;;3.55;;
34896;SDS011;43407;51.828;-2.298;2023-04-25T05:15:37;3.85;;;3.42;;
34896;SDS011;43407;51.828;-2.298;2023-04-25T05:18:03;4.50;;;4.03;;
34896;SDS011;43407;51.828;-2.298;2023-04-25T05:20:29;6.07;;;3.42;;
34896;SDS011;43407;51.828;-2.298;2023-04-25T05:22:55;6.65;;;4.07;;
34896;SDS011;43407;51.828;-2.298;2023-04-25T05:25:20;4.82;;;3.10;;
34896;SDS011;43407;51.828;-2.298;2023-04-25T05:27:46;5.90;;;3.92;;
34896;SDS011;43407;51.828;-2.298;2023-04-25T05:30:11;5.50;;;3.53;;
34896;SDS011;43407;51.828;-2.298;2023-04-25T05:32:37;5.45;;;3.65;;
34896;SDS011;43407;51.828;-2.298;2023-04-25T05:35:03;4.05;;;2.97;;
34896;SDS011;43407;51.828;-2.298;2023-04-25T05:37:31;4.75;;;3.22;;
34896;SDS011;43407;51.828;-2.298;2023-04-25T05:39:57;4.32;;;3.80;;
34896;SDS011;43407;51.828;-2.298;2023-04-25T05:42:23;5.55;;;3.60;;
34896;SDS011;43407;51.828;-2.298;2023-04-25T05:44:49;3.38;;;3.08;;
34896;SDS011;43407;51.828;-2.298;2023-04-25T05:47:14;4.45;;;3.10;;
34896;SDS011;43407;51.828;-2.298;2023-04-25T05:49:40;5.18;;;3.70;;
34896;SDS011;43407;51.828;-2.298;2023-04-25T05:52:05;3.90;;;2.97;;
34896;SDS011;43407;51.828;-2.298;2023-04-25T05:54:31;3.40;;;2.97;;
34896;SDS011;43407;51.828;-2.298;2023-04-25T05:56:58;4.30;;;3.60;;
34896;SDS011;43407;51.828;-2.298;2023-04-25T05:59:23;4.90;;;3.60;;
34896;SDS011;43407;51.828;-2.298;2023-04-25T06:01:49;5.32;;;3.53;;
34896;SDS011;43407;51.828;-2.298;2023-04-25T06:04:15;6.35;;;3.85;;
34896;SDS011;43407;51.828;-2.298;2023-04-25T06:06:40;5.20;;;4.10;;
34896;SDS011;43407;51.828;-2.298;2023-04-25T06:09:06;34.90;;;4.45;;
34896;SDS011;43407;51.828;-2.298;2023-04-25T06:11:31;29.58;;;4.10;;
34896;SDS011;43407;51.828;-2.298;2023-04-25T06:13:57;6.88;;;3.13;;
34896;SDS011;43407;51.828;-2.298;2023-04-25T06:16:22;4.95;;;3.53;;
34896;SDS011;43407;51.828;-2.298;2023-04-25T06:18:50;7.47;;;3.63;;
34896;SDS011;43407;51.828;-2.298;2023-04-25T06:21:16;5.28;;;3.72;;
34896;SDS011;43407;51.828;-2.298;2023-04-25T06:23:42;7.40;;;3.40;;
34896;SDS011;43407;51.828;-2.298;2023-04-25T06:26:07;8.45;;;3.72;;
34896;SDS011;43407;51.828;-2.298;2023-04-25T06:28:33;5.88;;;3.78;;
34896;SDS011;43407;51.828;-2.298;2023-04-25T06:30:58;5.85;;;4.03;;
34896;SDS011;43407;51.828;-2.298;2023-04-25T06:33:24;5.55;;;3.50;;
34896;SDS011;43407;51.828;-2.298;2023-04-25T06:35:50;5.72;;;3.45;;
34896;SDS011;43407;51.828;-2.298;2023-04-25T06:38:16;5.75;;;3.50;;
34896;SDS011;43407;51.828;-2.298;2023-04-25T06:40:41;6.63;;;3.35;;
34896;SDS011;43407;51.828;-2.298;2023-04-25T06:43:07;4.82;;;3.13;;
34896;SDS011;43407;51.828;-2.298;2023-04-25T06:45:32;5.03;;;3.38;;
34896;SDS011;43407;51.828;-2.298;2023-04-25T06:47:58;9.07;;;3.85;;
34896;SDS011;43407;51.828;-2.298;2023-04-25T06:50:23;4.38;;;3.42;;
34896;SDS011;43407;51.828;-2.298;2023-04-25T06:52:49;3.60;;;3.10;;
34896;SDS011;43407;51.828;-2.298;2023-04-25T06:55:15;5.13;;;3.45;;
34896;SDS011;43407;51.828;-2.298;2023-04-25T06:57:41;9.05;;;3.45;;
34896;SDS011;43407;51.828;-2.298;2023-04-25T07:00:06;5.57;;;3.60;;
34896;SDS011;43407;51.828;-2.298;2023-04-25T07:02:34;5.45;;;3.30;;
34896;SDS011;43407;51.828;-2.298;2023-04-25T07:05:01;6.40;;;3.47;;
34896;SDS011;43407;51.828;-2.298;2023-04-25T07:07:29;7.95;;;3.40;;
34896;SDS011;43407;51.828;-2.298;2023-04-25T07:09:55;4.68;;;3.20;;
34896;SDS011;43407;51.828;-2.298;2023-04-25T07:12:21;9.95;;;4.40;;
34896;SDS011;43407;51.828;-2.298;2023-04-25T07:14:46;5.35;;;3.45;;
34896;SDS011;43407;51.828;-2.298;2023-04-25T07:17:12;6.88;;;3.42;;
34896;SDS011;43407;51.828;-2.298;2023-04-25T07:19:38;7.57;;;3.90;;
34896;SDS011;43407;51.828;-2.298;2023-04-25T07:22:05;4.65;;;3.10;;
34896;SDS011;43407;51.828;-2.298;2023-04-25T07:24:31;6.93;;;3.72;;
34896;SDS011;43407;51.828;-2.298;2023-04-25T07:26:57;8.13;;;3.70;;
34896;SDS011;43407;51.828;-2.298;2023-04-25T07:29:23;8.40;;;3.58;;
34896;SDS011;43407;51.828;-2.298;2023-04-25T07:31:48;8.18;;;3.30;;
34896;SDS011;43407;51.828;-2.298;2023-04-25T07:34:14;8.20;;;3.55;;
34896;SDS011;43407;51.828;-2.298;2023-04-25T07:36:40;6.35;;;3.72;;
34896;SDS011;43407;51.828;-2.298;2023-04-25T07:39:06;6.35;;;3.72;;
34896;SDS011;43407;51.828;-2.298;2023-04-25T07:41:32;6.13;;;3.97;;
34896;SDS011;43407;51.828;-2.298;2023-04-25T07:43:58;7.10;;;3.78;;
34896;SDS011;43407;51.828;-2.298;2023-04-25T07:46:23;8.50;;;4.32;;
34896;SDS011;43407;51.828;-2.298;2023-04-25T07:48:50;6.75;;;3.55;;
34896;SDS011;43407;51.828;-2.298;2023-04-25T07:51:15;7.00;;;4.00;;
34896;SDS011;43407;51.828;-2.298;2023-04-25T07:53:41;5.95;;;3.25;;
34896;SDS011;43407;51.828;-2.298;2023-04-25T07:56:07;7.38;;;3.60;;
34896;SDS011;43407;51.828;-2.298;2023-04-25T07:58:33;6.80;;;3.20;;
34896;SDS011;43407;51.828;-2.298;2023-04-25T08:00:59;10.18;;;3.42;;
34896;SDS011;43407;51.828;-2.298;2023-04-25T08:03:24;6.35;;;3.22;;
34896;SDS011;43407;51.828;-2.298;2023-04-25T08:05:50;6.93;;;3.15;;
34896;SDS011;43407;51.828;-2.298;2023-04-25T08:08:15;7.63;;;3.08;;
34896;SDS011;43407;51.828;-2.298;2023-04-25T08:10:41;8.80;;;3.28;;
34896;SDS011;43407;51.828;-2.298;2023-04-25T08:13:07;9.18;;;3.10;;
34896;SDS011;43407;51.828;-2.298;2023-04-25T08:15:32;7.28;;;2.55;;
34896;SDS011;43407;51.828;-2.298;2023-04-25T08:17:58;6.93;;;2.95;;
34896;SDS011;43407;51.828;-2.298;2023-04-25T08:20:24;8.05;;;2.65;;
34896;SDS011;43407;51.828;-2.298;2023-04-25T08:22:50;8.13;;;2.72;;
34896;SDS011;43407;51.828;-2.298;2023-04-25T08:25:15;6.38;;;2.60;;
34896;SDS011;43407;51.828;-2.298;2023-04-25T08:27:41;9.73;;;2.70;;
34896;SDS011;43407;51.828;-2.298;2023-04-25T08:30:08;5.63;;;2.22;;
34896;SDS011;43407;51.828;-2.298;2023-04-25T08:32:34;5.65;;;2.45;;
34896;SDS011;43407;51.828;-2.298;2023-04-25T08:34:59;4.90;;;1.90;;
34896;SDS011;43407;51.828;-2.298;2023-04-25T08:37:25;11.25;;;2.17;;
34896;SDS011;43407;51.828;-2.298;2023-04-25T08:39:50;7.50;;;2.38;;
34896;SDS011;43407;51.828;-2.298;2023-04-25T08:42:21;8.73;;;2.55;;
34896;SDS011;43407;51.828;-2.298;2023-04-25T08:44:47;6.13;;;2.85;;
34896;SDS011;43407;51.828;-2.298;2023-04-25T08:47:13;4.63;;;2.13;;
34896;SDS011;43407;51.828;-2.298;2023-04-25T08:49:39;4.15;;;2.00;;
34896;SDS011;43407;51.828;-2.298;2023-04-25T08:52:05;4.53;;;1.98;;
34896;SDS011;43407;51.828;-2.298;2023-04-25T08:54:31;7.75;;;2.00;;
34896;SDS011;43407;51.828;-2.298;2023-04-25T08:56:59;6.45;;;2.10;;
34896;SDS011;43407;51.828;-2.298;2023-04-25T08:59:29;6.53;;;1.98;;
34896;SDS011;43407;51.828;-2.298;2023-04-25T09:01:55;4.97;;;1.90;;
34896;SDS011;43407;51.828;-2.298;2023-04-25T09:04:21;4.50;;;1.80;;
34896;SDS011;43407;51.828;-2.298;2023-04-25T09:06:47;3.75;;;1.60;;
34896;SDS011;43407;51.828;-2.298;2023-04-25T09:09:13;5.18;;;1.67;;
34896;SDS011;43407;51.828;-2.298;2023-04-25T09:11:38;6.28;;;1.85;;
34896;SDS011;43407;51.828;-2.298;2023-04-25T09:14:12;6.28;;;1.77;;
34896;SDS011;43407;51.828;-2.298;2023-04-25T09:17:00;6.43;;;1.88;;
34896;SDS011;43407;51.828;-2.298;2023-04-25T09:19:30;5.95;;;1.80;;
34896;SDS011;43407;51.828;-2.298;2023-04-25T09:21:57;5.57;;;1.88;;
34896;SDS011;43407;51.828;-2.298;2023-04-25T09:24:33;4.10;;;1.80;;
34896;SDS011;43407;51.828;-2.298;2023-04-25T09:26:59;5.63;;;1.90;;
34896;SDS011;43407;51.828;-2.298;2023-04-25T09:29:30;4.28;;;1.90;;
34896;SDS011;43407;51.828;-2.298;2023-04-25T09:34:43;7.05;;;1.60;;
34896;SDS011;43407;51.828;-2.298;2023-04-25T09:37:16;3.90;;;1.50;;
34896;SDS011;43407;51.828;-2.298;2023-04-25T09:39:44;2.92;;;1.38;;
34896;SDS011;43407;51.828;-2.298;2023-04-25T09:42:10;4.75;;;2.33;;
34896;SDS011;43407;51.828;-2.298;2023-04-25T09:44:36;3.83;;;1.45;;
34896;SDS011;43407;51.828;-2.298;2023-04-25T09:47:02;5.95;;;1.90;;
34896;SDS011;43407;51.828;-2.298;2023-04-25T09:49:27;6.53;;;2.03;;
34896;SDS011;43407;51.828;-2.298;2023-04-25T09:51:53;4.70;;;2.05;;
34896;SDS011;43407;51.828;-2.298;2023-04-25T09:54:23;3.80;;;1.58;;
34896;SDS011;43407;51.828;-2.298;2023-04-25T09:56:49;3.17;;;1.58;;
34896;SDS011;43407;51.828;-2.298;2023-04-25T09:59:17;4.50;;;1.75;;
34896;SDS011;43407;51.828;-2.298;2023-04-25T10:01:48;3.78;;;1.63;;
34896;SDS011;43407;51.828;-2.298;2023-04-25T10:04:16;3.33;;;1.30;;
34896;SDS011;43407;51.828;-2.298;2023-04-25T10:06:45;2.83;;;1.50;;
34896;SDS011;43407;51.828;-2.298;2023-04-25T10:09:14;3.20;;;1.52;;
34896;SDS011;43407;51.828;-2.298;2023-04-25T10:11:40;3.88;;;1.60;;
34896;SDS011;43407;51.828;-2.298;2023-04-25T10:14:05;3.67;;;1.20;;
34896;SDS011;43407;51.828;-2.298;2023-04-25T10:16:31;3.60;;;1.20;;
34896;SDS011;43407;51.828;-2.298;2023-04-25T10:18:57;2.97;;;1.10;;
34896;SDS011;43407;51.828;-2.298;2023-04-25T10:21:23;3.65;;;1.10;;
34896;SDS011;43407;51.828;-2.298;2023-04-25T10:23:49;2.78;;;1.10;;
34896;SDS011;43407;51.828;-2.298;2023-04-25T10:26:15;4.15;;;1.50;;
34896;SDS011;43407;51.828;-2.298;2023-04-25T10:28:58;2.83;;;1.55;;
34896;SDS011;43407;51.828;-2.298;2023-04-25T10:31:24;6.93;;;1.50;;
34896;SDS011;43407;51.828;-2.298;2023-04-25T10:33:50;4.10;;;1.50;;
34896;SDS011;43407;51.828;-2.298;2023-04-25T10:36:20;2.17;;;1.17;;
34896;SDS011;43407;51.828;-2.298;2023-04-25T10:38:48;3.13;;;1.30;;
34896;SDS011;43407;51.828;-2.298;2023-04-25T10:41:17;2.60;;;1.20;;
34896;SDS011;43407;51.828;-2.298;2023-04-25T10:43:44;2.55;;;1.33;;
34896;SDS011;43407;51.828;-2.298;2023-04-25T10:46:14;3.35;;;1.30;;
34896;SDS011;43407;51.828;-2.298;2023-04-25T10:48:45;2.10;;;1.20;;
34896;SDS011;43407;51.828;-2.298;2023-04-25T10:51:16;2.88;;;1.15;;
34896;SDS011;43407;51.828;-2.298;2023-04-25T10:53:46;2.95;;;1.08;;
34896;SDS011;43407;51.828;-2.298;2023-04-25T10:59:05;2.08;;;1.42;;
34896;SDS011;43407;51.828;-2.298;2023-04-25T11:01:39;2.97;;;1.42;;
34896;SDS011;43407;51.828;-2.298;2023-04-25T11:04:30;1.92;;;1.25;;
34896;SDS011;43407;51.828;-2.298;2023-04-25T11:09:33;3.70;;;1.58;;
34896;SDS011;43407;51.828;-2.298;2023-04-25T11:11:59;4.35;;;1.50;;
34896;SDS011;43407;51.828;-2.298;2023-04-25T11:14:26;3.60;;;1.45;;
34896;SDS011;43407;51.828;-2.298;2023-04-25T11:16:58;5.05;;;1.77;;
34896;SDS011;43407;51.828;-2.298;2023-04-25T11:19:26;3.67;;;1.52;;
34896;SDS011;43407;51.828;-2.298;2023-04-25T11:21:55;3.63;;;1.42;;
34896;SDS011;43407;51.828;-2.298;2023-04-25T11:24:28;3.42;;;1.50;;
34896;SDS011;43407;51.828;-2.298;2023-04-25T11:26:54;7.33;;;1.70;;
34896;SDS011;43407;51.828;-2.298;2023-04-25T11:29:25;3.75;;;1.80;;
34896;SDS011;43407;51.828;-2.298;2023-04-25T11:31:52;3.55;;;1.58;;
34896;SDS011;43407;51.828;-2.298;2023-04-25T11:34:18;4.78;;;1.98;;
34896;SDS011;43407;51.828;-2.298;2023-04-25T11:36:45;3.67;;;1.55;;
34896;SDS011;43407;51.828;-2.298;2023-04-25T11:39:11;5.68;;;1.52;;
34896;SDS011;43407;51.828;-2.298;2023-04-25T11:41:37;3.85;;;1.48;;
34896;SDS011;43407;51.828;-2.298;2023-04-25T11:44:03;2.30;;;1.30;;
34896;SDS011;43407;51.828;-2.298;2023-04-25T11:46:30;4.82;;;1.50;;
34896;SDS011;43407;51.828;-2.298;2023-04-25T11:48:59;4.43;;;1.48;;
34896;SDS011;43407;51.828;-2.298;2023-04-25T11:51:25;2.67;;;1.45;;
34896;SDS011;43407;51.828;-2.298;2023-04-25T11:53:51;1.95;;;1.40;;
34896;SDS011;43407;51.828;-2.298;2023-04-25T11:56:17;2.83;;;1.40;;
34896;SDS011;43407;51.828;-2.298;2023-04-25T11:58:59;5.07;;;1.40;;
34896;SDS011;43407;51.828;-2.298;2023-04-25T12:01:31;3.33;;;2.05;;
34896;SDS011;43407;51.828;-2.298;2023-04-25T12:03:58;3.15;;;1.50;;
34896;SDS011;43407;51.828;-2.298;2023-04-25T12:06:36;2.17;;;1.40;;
34896;SDS011;43407;51.828;-2.298;2023-04-25T12:09:04;4.68;;;1.75;;
34896;SDS011;43407;51.828;-2.298;2023-04-25T12:11:32;2.80;;;1.55;;
34896;SDS011;43407;51.828;-2.298;2023-04-25T12:14:04;6.22;;;1.88;;
34896;SDS011;43407;51.828;-2.298;2023-04-25T12:16:42;3.35;;;1.58;;
34896;SDS011;43407;51.828;-2.298;2023-04-25T12:19:08;4.88;;;1.75;;
34896;SDS011;43407;51.828;-2.298;2023-04-25T12:21:34;3.88;;;1.65;;
34896;SDS011;43407;51.828;-2.298;2023-04-25T12:24:09;2.00;;;1.50;;
34896;SDS011;43407;51.828;-2.298;2023-04-25T12:29:25;2.55;;;1.48;;
34896;SDS011;43407;51.828;-2.298;2023-04-25T12:31:52;4.22;;;1.70;;
34896;SDS011;43407;51.828;-2.298;2023-04-25T12:34:19;2.10;;;1.17;;
34896;SDS011;43407;51.828;-2.298;2023-04-25T12:36:45;2.78;;;1.60;;
34896;SDS011;43407;51.828;-2.298;2023-04-25T12:39:14;5.10;;;1.80;;
34896;SDS011;43407;51.828;-2.298;2023-04-25T12:41:41;3.88;;;1.90;;
34896;SDS011;43407;51.828;-2.298;2023-04-25T12:44:06;2.90;;;1.85;;
34896;SDS011;43407;51.828;-2.298;2023-04-25T12:46:32;4.72;;;1.75;;
34896;SDS011;43407;51.828;-2.298;2023-04-25T12:48:58;3.42;;;1.75;;
34896;SDS011;43407;51.828;-2.298;2023-04-25T12:51:23;2.72;;;1.40;;
34896;SDS011;43407;51.828;-2.298;2023-04-25T12:53:52;3.22;;;1.48;;
34896;SDS011;43407;51.828;-2.298;2023-04-25T12:56:18;5.18;;;1.77;;
34896;SDS011;43407;51.828;-2.298;2023-04-25T12:58:44;2.63;;;1.70;;
34896;SDS011;43407;51.828;-2.298;2023-04-25T13:01:11;3.63;;;1.88;;
34896;SDS011;43407;51.828;-2.298;2023-04-25T13:03:38;2.40;;;1.67;;
34896;SDS011;43407;51.828;-2.298;2023-04-25T13:06:04;4.18;;;2.13;;
34896;SDS011;43407;51.828;-2.298;2023-04-25T13:08:30;4.25;;;1.40;;
34896;SDS011;43407;51.828;-2.298;2023-04-25T13:10:56;4.30;;;1.52;;
34896;SDS011;43407;51.828;-2.298;2023-04-25T13:13:22;2.78;;;1.80;;
34896;SDS011;43407;51.828;-2.298;2023-04-25T13:15:47;3.35;;;1.80;;
34896;SDS011;43407;51.828;-2.298;2023-04-25T13:18:14;2.53;;;1.58;;
34896;SDS011;43407;51.828;-2.298;2023-04-25T13:20:40;3.63;;;1.40;;
34896;SDS011;43407;51.828;-2.298;2023-04-25T13:23:06;4.15;;;2.58;;
34896;SDS011;43407;51.828;-2.298;2023-04-25T13:25:32;3.30;;;1.42;;
34896;SDS011;43407;51.828;-2.298;2023-04-25T13:27:58;3.80;;;1.42;;
34896;SDS011;43407;51.828;-2.298;2023-04-25T13:30:23;3.35;;;1.45;;
34896;SDS011;43407;51.828;-2.298;2023-04-25T13:32:49;3.70;;;1.52;;
34896;SDS011;43407;51.828;-2.298;2023-04-25T13:35:16;4.10;;;1.50;;
34896;SDS011;43407;51.828;-2.298;2023-04-25T13:37:42;3.80;;;1.60;;
34896;SDS011;43407;51.828;-2.298;2023-04-25T13:40:09;3.67;;;1.80;;
34896;SDS011;43407;51.828;-2.298;2023-04-25T13:42:36;3.92;;;1.50;;
34896;SDS011;43407;51.828;-2.298;2023-04-25T13:45:02;3.17;;;1.40;;
34896;SDS011;43407;51.828;-2.298;2023-04-25T13:47:28;3.53;;;1.60;;
34896;SDS011;43407;51.828;-2.298;2023-04-25T13:49:54;1.95;;;1.20;;
34896;SDS011;43407;51.828;-2.298;2023-04-25T13:52:20;4.85;;;1.75;;
34896;SDS011;43407;51.828;-2.298;2023-04-25T13:54:45;5.43;;;2.10;;
34896;SDS011;43407;51.828;-2.298;2023-04-25T13:57:11;7.22;;;1.92;;
34896;SDS011;43407;51.828;-2.298;2023-04-25T13:59:37;4.97;;;1.90;;
34896;SDS011;43407;51.828;-2.298;2023-04-25T14:02:03;4.53;;;1.88;;
34896;SDS011;43407;51.828;-2.298;2023-04-25T14:04:29;4.57;;;1.80;;
34896;SDS011;43407;51.828;-2.298;2023-04-25T14:06:55;5.88;;;1.70;;
34896;SDS011;43407;51.828;-2.298;2023-04-25T14:09:21;3.20;;;1.70;;
34896;SDS011;43407;51.828;-2.298;2023-04-25T14:11:51;3.05;;;1.67;;
34896;SDS011;43407;51.828;-2.298;2023-04-25T14:14:21;5.85;;;1.80;;
34896;SDS011;43407;51.828;-2.298;2023-04-25T14:16:47;2.28;;;1.30;;
34896;SDS011;43407;51.828;-2.298;2023-04-25T14:19:17;4.32;;;1.40;;
34896;SDS011;43407;51.828;-2.298;2023-04-25T14:21:42;1.88;;;1.52;;
34896;SDS011;43407;51.828;-2.298;2023-04-25T14:24:08;3.88;;;1.73;;
34896;SDS011;43407;51.828;-2.298;2023-04-25T14:26:36;1.38;;;1.27;;
34896;SDS011;43407;51.828;-2.298;2023-04-25T14:29:02;2.60;;;1.55;;
34896;SDS011;43407;51.828;-2.298;2023-04-25T14:31:31;3.83;;;1.60;;
34896;SDS011;43407;51.828;-2.298;2023-04-25T14:33:58;2.70;;;1.73;;
34896;SDS011;43407;51.828;-2.298;2023-04-25T14:36:23;2.83;;;2.03;;
34896;SDS011;43407;51.828;-2.298;2023-04-25T14:38:49;5.10;;;2.08;;
34896;SDS011;43407;51.828;-2.298;2023-04-25T14:41:14;4.40;;;1.95;;